createdAt,value
2023-02-24T00:00:25.558Z,3.67
2023-02-24T00:03:48.865Z,3.86
2023-02-24T00:06:19.407Z,4.50
2023-02-24T00:09:00.533Z,4.24
2023-02-24T00:11:29.652Z,4.35
2023-02-24T00:13:58.669Z,3.51
2023-02-24T00:16:27.526Z,3.56
2023-02-24T00:18:56.714Z,3.75
2023-02-24T00:21:27.287Z,3.83
2023-02-24T00:23:56.930Z,3.77
2023-02-24T00:26:26.605Z,4.03
2023-02-24T00:28:55.403Z,3.96
2023-02-24T00:31:25.585Z,4.11
2023-02-24T00:33:57.382Z,4.29
2023-02-24T00:36:29.312Z,4.17
2023-02-24T00:38:59.658Z,4.36
2023-02-24T00:41:30.144Z,4.27
2023-02-24T00:44:06.203Z,4.47
2023-02-24T00:46:37.240Z,4.26
2023-02-24T00:49:12.861Z,3.95
2023-02-24T00:51:44.113Z,3.69
2023-02-24T00:54:15.134Z,3.85
2023-02-24T00:56:45.393Z,4.08
2023-02-24T00:59:18.756Z,4.04
2023-02-24T01:01:50.847Z,4.74
2023-02-24T01:04:22.377Z,4.49
2023-02-24T01:07:00.189Z,3.92
2023-02-24T01:09:31.854Z,3.93
2023-02-24T01:12:17.789Z,3.90
2023-02-24T01:14:48.675Z,3.50
2023-02-24T01:17:20.408Z,4.15
2023-02-24T01:19:50.444Z,3.85
2023-02-24T01:22:21.416Z,4.41
2023-02-24T01:24:50.846Z,4.42
2023-02-24T01:27:20.430Z,4.50
2023-02-24T01:29:50.265Z,4.59
2023-02-24T01:32:21.719Z,4.98
2023-02-24T01:34:53.716Z,4.23
2023-02-24T01:37:24.330Z,3.91
2023-02-24T01:39:53.494Z,4.29
2023-02-24T01:42:24.215Z,4.06
2023-02-24T01:45:15.252Z,4.08
2023-02-24T01:47:47.539Z,4.13
2023-02-24T01:50:18.011Z,4.54
2023-02-24T01:52:49.153Z,4.17
2023-02-24T01:55:22.897Z,3.81
2023-02-24T01:57:53.635Z,3.95
2023-02-24T02:00:45.676Z,3.91
2023-02-24T02:03:24.280Z,4.21
2023-02-24T02:05:54.775Z,4.70
2023-02-24T02:08:27.609Z,4.72
2023-02-24T02:10:59.068Z,4.15
2023-02-24T02:13:30.220Z,4.04
2023-02-24T02:16:07.086Z,4.08
2023-02-24T02:18:47.541Z,4.06
2023-02-24T02:21:49.523Z,3.85
2023-02-24T02:24:31.815Z,4.08
2023-02-24T02:27:29.563Z,4.06
2023-02-24T02:30:25.677Z,4.38
2023-02-24T02:33:38.615Z,4.95
2023-02-24T02:36:15.456Z,4.93
2023-02-24T02:38:52.232Z,4.87
2023-02-24T02:41:25.814Z,4.66
2023-02-24T02:44:02.860Z,5.10
2023-02-24T02:46:36.372Z,5.03
2023-02-24T02:49:11.621Z,5.12
2023-02-24T02:51:44.451Z,5.25
2023-02-24T02:54:18.413Z,5.54
2023-02-24T02:56:50.726Z,5.56
2023-02-24T02:59:23.648Z,5.33
2023-02-24T03:01:55.738Z,5.57
2023-02-24T03:04:27.129Z,5.92
2023-02-24T03:07:00.963Z,6.08
2023-02-24T03:09:33.128Z,6.19
2023-02-24T03:12:08.416Z,5.64
2023-02-24T03:14:40.756Z,5.68
2023-02-24T03:17:15.051Z,5.51
2023-02-24T03:19:43.944Z,5.79
2023-02-24T03:22:18.309Z,6.33
2023-02-24T03:24:47.868Z,6.35
2023-02-24T03:27:27.716Z,6.69
2023-02-24T03:30:00.292Z,6.29
2023-02-24T03:32:34.395Z,6.04
2023-02-24T03:35:07.211Z,6.25
2023-02-24T03:37:38.846Z,6.15
2023-02-24T03:40:11.819Z,5.98
2023-02-24T03:42:43.473Z,6.01
2023-02-24T03:45:12.937Z,6.00
2023-02-24T03:47:42.715Z,6.22
2023-02-24T03:50:14.448Z,5.87
2023-02-24T03:52:49.368Z,6.22
2023-02-24T03:55:26.151Z,5.96
2023-02-24T03:58:05.606Z,5.48
2023-02-24T04:00:46.994Z,5.95
2023-02-24T04:03:25.762Z,5.42
2023-02-24T04:06:09.556Z,5.76
2023-02-24T04:08:45.244Z,6.14
2023-02-24T04:11:21.164Z,5.58
2023-02-24T04:13:53.076Z,5.61
2023-02-24T04:16:29.245Z,5.91
2023-02-24T04:19:02.985Z,6.00
2023-02-24T04:21:34.389Z,5.49
2023-02-24T04:24:07.439Z,6.13
2023-02-24T04:26:40.518Z,6.34
2023-02-24T04:29:17.661Z,5.64
2023-02-24T04:31:48.206Z,5.47
2023-02-24T04:34:20.319Z,5.79
2023-02-24T04:36:51.068Z,6.15
2023-02-24T04:39:23.566Z,6.59
2023-02-24T04:41:57.840Z,5.95
2023-02-24T04:44:28.298Z,6.03
2023-02-24T04:46:57.399Z,6.55
2023-02-24T04:49:27.256Z,6.67
2023-02-24T04:51:57.310Z,6.82
2023-02-24T04:54:29.809Z,6.71
2023-02-24T04:56:59.630Z,6.73
2023-02-24T04:59:33.576Z,6.87
2023-02-24T05:02:02.698Z,6.64
2023-02-24T05:04:34.527Z,6.66
2023-02-24T05:07:03.759Z,6.19
2023-02-24T05:09:34.453Z,6.62
2023-02-24T05:12:06.378Z,6.91
2023-02-24T05:14:35.970Z,7.06
2023-02-24T05:17:05.270Z,7.07
2023-02-24T05:19:51.393Z,6.78
2023-02-24T05:22:23.016Z,6.79
2023-02-24T05:24:54.120Z,7.07
2023-02-24T05:27:23.418Z,7.08
2023-02-24T05:29:55.156Z,7.36
2023-02-24T05:32:25.551Z,6.70
2023-02-24T05:34:54.489Z,7.17
2023-02-24T05:37:23.583Z,7.57
2023-02-24T05:39:56.828Z,7.41
2023-02-24T05:42:26.420Z,7.20
2023-02-24T05:44:55.814Z,6.76
2023-02-24T05:47:27.138Z,6.83
2023-02-24T05:49:59.308Z,6.98
2023-02-24T05:52:28.547Z,7.01
2023-02-24T05:55:02.819Z,7.09
2023-02-24T05:57:37.992Z,7.11
2023-02-24T06:00:16.708Z,7.13
2023-02-24T06:02:49.789Z,7.45
2023-02-24T06:05:28.987Z,7.25
2023-02-24T06:08:06.638Z,7.09
2023-02-24T06:10:37.340Z,6.97
2023-02-24T06:13:06.978Z,7.07
2023-02-24T06:15:37.596Z,7.00
2023-02-24T06:18:07.449Z,7.48
2023-02-24T06:20:38.772Z,7.32
2023-02-24T06:23:08.923Z,8.07
2023-02-24T06:25:39.904Z,7.79
2023-02-24T06:28:09.982Z,7.80
2023-02-24T06:30:39.425Z,8.07
2023-02-24T06:33:09.088Z,8.17
2023-02-24T06:35:39.787Z,7.82
2023-02-24T06:38:08.917Z,8.05
2023-02-24T06:40:39.250Z,8.38
2023-02-24T06:43:12.332Z,8.66
2023-02-24T06:45:41.576Z,8.68
2023-02-24T06:48:12.051Z,7.90
2023-02-24T06:50:42.234Z,7.99
2023-02-24T06:53:17.123Z,8.19
2023-02-24T06:55:49.025Z,8.12
2023-02-24T06:58:20.975Z,8.24
2023-02-24T07:00:57.020Z,8.06
2023-02-24T07:03:40.477Z,8.30
2023-02-24T07:06:20.588Z,7.92
2023-02-24T07:08:49.878Z,7.76
2023-02-24T07:11:20.852Z,8.18
2023-02-24T07:13:51.055Z,8.35
2023-02-24T07:16:25.223Z,8.60
2023-02-24T07:18:56.842Z,8.58
2023-02-24T07:21:27.681Z,8.33
2023-02-24T07:23:59.084Z,7.80
2023-02-24T07:26:30.708Z,8.16
2023-02-24T07:28:59.902Z,7.55
2023-02-24T07:31:29.341Z,7.99
2023-02-24T07:34:00.702Z,7.80
2023-02-24T07:36:31.132Z,8.45
2023-02-24T07:39:01.781Z,8.24
2023-02-24T07:41:32.354Z,8.57
2023-02-24T07:44:03.471Z,8.72
2023-02-24T07:46:33.671Z,8.38
2023-02-24T07:49:04.337Z,8.61
2023-02-24T07:51:33.595Z,8.24
2023-02-24T07:54:05.322Z,8.42
2023-02-24T07:56:46.130Z,8.88
2023-02-24T07:59:19.006Z,8.83
2023-02-24T08:01:50.973Z,8.55
2023-02-24T08:04:23.515Z,8.20
2023-02-24T08:06:57.132Z,8.59
2023-02-24T08:09:44.999Z,8.69
2023-02-24T08:12:18.201Z,8.69
2023-02-24T08:14:51.256Z,8.68
2023-02-24T08:17:21.565Z,8.44
2023-02-24T08:19:57.937Z,8.77
2023-02-24T08:22:28.932Z,8.31
2023-02-24T08:25:00.841Z,8.80
2023-02-24T08:27:31.829Z,8.58
2023-02-24T08:30:03.056Z,9.17
2023-02-24T08:32:37.222Z,8.95
2023-02-24T08:35:14.674Z,9.25
2023-02-24T08:37:47.272Z,8.95
2023-02-24T08:40:38.141Z,9.29
2023-02-24T08:43:17.393Z,9.02
2023-02-24T08:45:51.018Z,9.23
2023-02-24T08:48:32.395Z,8.98
2023-02-24T08:51:04.762Z,9.53
2023-02-24T08:53:34.058Z,9.61
2023-02-24T08:56:09.784Z,9.94
2023-02-24T08:58:47.530Z,9.71
2023-02-24T09:01:24.596Z,9.86
2023-02-24T09:03:56.806Z,9.99
2023-02-24T09:06:35.242Z,9.53
2023-02-24T09:09:21.268Z,9.16
2023-02-24T09:11:56.527Z,9.50
2023-02-24T09:14:29.454Z,9.47
2023-02-24T09:17:11.273Z,9.39
2023-02-24T09:20:02.512Z,9.44
2023-02-24T09:22:33.229Z,9.73
2023-02-24T09:25:21.897Z,9.47
2023-02-24T09:27:57.241Z,9.56
2023-02-24T09:30:38.671Z,10.09
2023-02-24T09:33:18.128Z,9.91
2023-02-24T09:35:48.826Z,10.14
2023-02-24T09:38:19.264Z,9.97
2023-02-24T09:40:52.880Z,9.79
2023-02-24T09:43:25.665Z,9.48
2023-02-24T09:46:02.313Z,9.71
2023-02-24T09:48:44.132Z,9.85
2023-02-24T09:51:22.115Z,9.07
2023-02-24T09:53:54.566Z,8.79
2023-02-24T09:56:30.441Z,8.30
2023-02-24T09:59:10.422Z,8.33
2023-02-24T10:01:49.943Z,8.32
2023-02-24T10:04:53.948Z,8.41
2023-02-24T10:07:27.870Z,8.77
2023-02-24T10:10:19.611Z,8.75
2023-02-24T10:12:53.007Z,8.50
2023-02-24T10:15:57.053Z,8.34
2023-02-24T10:18:34.208Z,8.16
2023-02-24T10:21:15.722Z,7.64
2023-02-24T10:23:56.894Z,7.61
2023-02-24T10:26:33.065Z,7.34
2023-02-24T10:29:09.249Z,7.65
2023-02-24T10:31:46.418Z,6.92
2023-02-24T10:34:26.536Z,7.01
2023-02-24T10:36:57.613Z,6.92
2023-02-24T10:39:27.330Z,7.15
2023-02-24T10:42:15.772Z,7.59
2023-02-24T10:45:03.383Z,7.21
2023-02-24T10:47:33.163Z,7.20
2023-02-24T10:50:07.548Z,7.36
2023-02-24T10:52:50.905Z,7.06
2023-02-24T10:55:39.244Z,7.15
2023-02-24T10:58:16.026Z,7.35
2023-02-24T11:01:00.773Z,7.24
2023-02-24T11:03:42.320Z,6.77
2023-02-24T11:06:42.437Z,6.91
2023-02-24T11:09:32.375Z,7.85
2023-02-24T11:12:23.957Z,7.85
2023-02-24T11:15:12.273Z,7.82
2023-02-24T11:17:48.013Z,7.90
2023-02-24T11:20:23.695Z,7.51
2023-02-24T11:22:55.994Z,8.05
2023-02-24T11:25:27.572Z,8.13
2023-02-24T11:27:57.255Z,8.07
2023-02-24T11:30:49.211Z,8.07
2023-02-24T11:33:24.021Z,7.86
2023-02-24T11:36:00.435Z,8.21
2023-02-24T11:38:39.969Z,7.96
2023-02-24T11:41:19.994Z,7.84
2023-02-24T11:43:57.981Z,8.34
2023-02-24T11:46:39.515Z,8.44
2023-02-24T11:49:22.329Z,8.26
2023-02-24T11:51:51.952Z,8.52
2023-02-24T11:54:23.644Z,8.45
2023-02-24T11:56:55.881Z,8.87
2023-02-24T11:59:33.691Z,8.97
2023-02-24T12:02:08.154Z,9.05
2023-02-24T12:04:39.988Z,9.23
2023-02-24T12:07:13.100Z,9.78
2023-02-24T12:09:46.893Z,9.88
2023-02-24T12:12:20.211Z,10.20
2023-02-24T12:14:53.669Z,11.50
2023-02-24T12:17:27.464Z,10.94
2023-02-24T12:20:06.046Z,9.44
2023-02-24T12:22:46.119Z,9.57
2023-02-24T12:25:19.177Z,8.82
2023-02-24T12:27:57.204Z,9.32
2023-02-24T12:30:57.823Z,9.23
2023-02-24T12:33:29.264Z,9.43
2023-02-24T12:36:05.146Z,9.61
2023-02-24T12:38:44.840Z,10.54
2023-02-24T12:41:37.272Z,10.09
2023-02-24T12:44:16.491Z,10.01
2023-02-24T12:46:47.306Z,9.98
2023-02-24T12:49:57.382Z,9.77
2023-02-24T12:52:32.641Z,10.07
2023-02-24T12:55:06.807Z,9.42
2023-02-24T12:57:44.054Z,9.00
2023-02-24T13:00:16.357Z,8.96
2023-02-24T13:02:52.151Z,9.13
2023-02-24T13:05:24.394Z,8.81
2023-02-24T13:08:08.789Z,8.65
2023-02-24T13:10:44.797Z,8.70
2023-02-24T13:13:23.113Z,9.27
2023-02-24T13:15:54.335Z,10.27
2023-02-24T13:18:28.424Z,10.66
2023-02-24T13:21:09.289Z,9.90
2023-02-24T13:23:42.982Z,9.66
2023-02-24T13:26:12.019Z,9.56
2023-02-24T13:28:42.142Z,9.13
2023-02-24T13:31:13.142Z,9.57
2023-02-24T13:33:43.274Z,9.51
2023-02-24T13:36:17.596Z,9.01
2023-02-24T13:38:48.190Z,9.27
2023-02-24T13:41:24.471Z,9.70
2023-02-24T13:44:00.745Z,10.08
2023-02-24T13:46:32.619Z,10.39
2023-02-24T13:49:06.572Z,9.68
2023-02-24T13:51:59.278Z,9.86
2023-02-24T13:55:09.024Z,9.87
2023-02-24T13:57:52.568Z,9.97
2023-02-24T14:00:32.637Z,10.30
2023-02-24T14:03:02.031Z,10.41
2023-02-24T14:05:34.483Z,10.89
2023-02-24T14:08:04.341Z,10.38
2023-02-24T14:10:34.822Z,10.96
2023-02-24T14:13:07.025Z,10.88
2023-02-24T14:15:37.748Z,10.84
2023-02-24T14:18:07.437Z,10.61
2023-02-24T14:20:38.055Z,9.92
2023-02-24T14:23:23.529Z,9.79
2023-02-24T14:25:56.384Z,9.80
2023-02-24T14:28:27.944Z,10.09
2023-02-24T14:31:00.340Z,11.11
2023-02-24T14:33:32.398Z,11.80
2023-02-24T14:36:02.017Z,12.05
2023-02-24T14:38:34.638Z,10.59
2023-02-24T14:41:07.990Z,9.85
2023-02-24T14:43:43.048Z,9.83
2023-02-24T14:46:13.807Z,9.91
2023-02-24T14:48:43.041Z,10.19
2023-02-24T14:51:15.615Z,9.31
2023-02-24T14:53:47.805Z,9.51
2023-02-24T14:56:17.340Z,9.32
2023-02-24T14:58:48.792Z,8.98
2023-02-24T15:01:24.366Z,8.58
2023-02-24T15:06:49.236Z,8.38
2023-02-24T15:09:21.648Z,8.42
2023-02-24T15:11:53.267Z,8.34
2023-02-24T15:14:24.840Z,8.34
2023-02-24T15:16:56.063Z,8.30
2023-02-24T15:19:28.542Z,8.21
2023-02-24T15:21:57.663Z,8.52
2023-02-24T15:24:29.022Z,8.30
2023-02-24T15:26:59.958Z,7.56
2023-02-24T15:29:30.593Z,8.04
2023-02-24T15:32:02.081Z,8.28
2023-02-24T15:34:33.099Z,8.45
2023-02-24T15:37:04.642Z,8.23
2023-02-24T15:39:37.069Z,8.29
2023-02-24T15:42:10.585Z,7.99
2023-02-24T15:44:39.891Z,8.22
2023-02-24T15:47:23.730Z,8.00
2023-02-24T15:49:53.622Z,7.85
2023-02-24T15:52:25.060Z,8.12
2023-02-24T15:54:54.680Z,7.95
2023-02-24T15:57:25.300Z,7.97
2023-02-24T15:59:54.720Z,7.93
2023-02-24T16:02:26.106Z,8.05
2023-02-24T16:04:55.647Z,7.68
2023-02-24T16:07:28.818Z,7.36
2023-02-24T16:09:59.189Z,6.90
2023-02-24T16:12:32.189Z,6.81
2023-02-24T16:15:05.527Z,6.72
2023-02-24T16:17:39.135Z,6.71
2023-02-24T16:20:12.301Z,6.34
2023-02-24T16:22:40.962Z,6.07
2023-02-24T16:25:12.101Z,6.48
2023-02-24T16:27:41.253Z,6.83
2023-02-24T16:30:17.153Z,6.57
2023-02-24T16:32:48.563Z,6.08
2023-02-24T16:35:18.412Z,6.41
2023-02-24T16:37:47.981Z,6.10
2023-02-24T16:40:23.259Z,6.26
2023-02-24T16:42:53.735Z,6.17
2023-02-24T16:45:23.408Z,5.58
2023-02-24T16:47:54.361Z,5.51
2023-02-24T16:50:25.302Z,5.57
2023-02-24T16:52:54.057Z,5.85
2023-02-24T16:55:24.028Z,5.61
2023-02-24T16:57:53.240Z,5.88
2023-02-24T17:00:24.320Z,5.52
2023-02-24T17:02:55.363Z,6.08
2023-02-24T17:05:26.171Z,6.15
2023-02-24T17:07:58.956Z,6.00
2023-02-24T17:10:28.029Z,5.92
2023-02-24T17:12:57.046Z,5.87
2023-02-24T17:15:27.866Z,6.17
2023-02-24T17:17:58.623Z,6.37
2023-02-24T17:20:29.002Z,6.37
2023-02-24T17:22:57.673Z,5.96
2023-02-24T17:25:28.352Z,5.86
2023-02-24T17:27:58.429Z,5.52
2023-02-24T17:30:30.789Z,5.09
2023-02-24T17:33:02.281Z,5.43
2023-02-24T17:35:31.579Z,5.19
2023-02-24T17:38:00.588Z,5.18
2023-02-24T17:40:29.313Z,5.38
2023-02-24T17:42:58.459Z,5.46
2023-02-24T17:45:27.721Z,5.36
2023-02-24T17:47:56.818Z,5.22
2023-02-24T17:50:27.326Z,5.20
2023-02-24T17:52:56.814Z,5.28
2023-02-24T17:55:25.991Z,5.56
2023-02-24T17:57:57.089Z,5.40
2023-02-24T18:00:26.485Z,5.49
2023-02-24T18:02:55.999Z,5.38
2023-02-24T18:05:26.963Z,5.44
2023-02-24T18:07:55.841Z,5.13
2023-02-24T18:10:25.041Z,5.23
2023-02-24T18:12:55.331Z,5.20
2023-02-24T18:15:24.541Z,5.43
2023-02-24T18:17:53.674Z,5.63
2023-02-24T18:20:23.010Z,5.57
2023-02-24T18:22:53.160Z,5.36
2023-02-24T18:25:22.356Z,5.21
2023-02-24T18:27:51.423Z,5.38
2023-02-24T18:30:21.444Z,5.20
2023-02-24T18:32:52.011Z,5.32
2023-02-24T18:35:22.269Z,5.48
2023-02-24T18:37:56.644Z,5.55
2023-02-24T18:40:27.482Z,5.42
2023-02-24T18:42:57.003Z,5.05
2023-02-24T18:45:26.261Z,4.88
2023-02-24T18:47:55.652Z,5.14
2023-02-24T18:50:25.251Z,5.19
2023-02-24T18:52:55.383Z,5.17
2023-02-24T18:55:24.488Z,5.09
2023-02-24T18:57:54.123Z,5.13
2023-02-24T19:00:23.740Z,5.20
2023-02-24T19:02:52.894Z,5.08
2023-02-24T19:05:22.126Z,5.13
2023-02-24T19:07:50.822Z,5.20
2023-02-24T19:10:21.702Z,5.30
2023-02-24T19:12:52.118Z,5.00
2023-02-24T19:15:22.521Z,5.16
2023-02-24T19:17:51.569Z,5.07
2023-02-24T19:20:21.201Z,4.38
2023-02-24T19:22:51.681Z,4.54
2023-02-24T19:25:22.445Z,4.71
2023-02-24T19:27:51.577Z,4.15
2023-02-24T19:30:20.713Z,4.28
2023-02-24T19:32:49.993Z,4.14
2023-02-24T19:35:19.929Z,3.77
2023-02-24T19:37:49.548Z,3.90
2023-02-24T19:40:19.490Z,3.98
2023-02-24T19:42:51.889Z,4.30
2023-02-24T19:45:21.250Z,3.92
2023-02-24T19:47:50.792Z,3.92
2023-02-24T19:50:20.050Z,3.67
2023-02-24T19:52:48.733Z,3.59
2023-02-24T19:55:18.141Z,3.66
2023-02-24T19:57:47.399Z,3.31
2023-02-24T20:00:20.987Z,3.50
2023-02-24T20:02:50.362Z,3.52
2023-02-24T20:05:19.669Z,3.65
2023-02-24T20:07:48.436Z,3.49
2023-02-24T20:10:18.836Z,3.28
2023-02-24T20:12:48.084Z,3.42
2023-02-24T20:15:20.316Z,3.04
2023-02-24T20:17:49.889Z,3.19
2023-02-24T20:20:19.033Z,3.45
2023-02-24T20:22:47.874Z,3.76
2023-02-24T20:25:18.173Z,3.50
2023-02-24T20:27:47.299Z,3.58
2023-02-24T20:30:16.785Z,3.09
2023-02-24T20:32:48.302Z,3.04
2023-02-24T20:35:17.688Z,3.19
2023-02-24T20:37:46.725Z,3.01
2023-02-24T20:40:16.152Z,3.27
2023-02-24T20:42:45.313Z,2.81
2023-02-24T20:45:14.520Z,2.89
2023-02-24T20:47:43.702Z,3.10
2023-02-24T20:50:14.908Z,3.47
2023-02-24T20:52:43.597Z,2.86
2023-02-24T20:55:12.956Z,3.18
2023-02-24T20:57:42.181Z,3.61
2023-02-24T21:00:12.545Z,3.36
2023-02-24T21:02:41.545Z,3.88
2023-02-24T21:05:12.336Z,3.49
2023-02-24T21:07:42.633Z,3.42
2023-02-24T21:10:13.801Z,3.65
2023-02-24T21:12:43.166Z,3.82
2023-02-24T21:15:14.751Z,4.45
2023-02-24T21:17:44.042Z,4.55
2023-02-24T21:20:14.240Z,4.57
2023-02-24T21:22:44.564Z,4.47
2023-02-24T21:25:13.798Z,4.49
2023-02-24T21:27:43.042Z,4.83
2023-02-24T21:30:13.280Z,4.99
2023-02-24T21:32:43.137Z,4.40
2023-02-24T21:35:12.386Z,4.24
2023-02-24T21:37:41.450Z,3.94
2023-02-24T21:40:14.317Z,3.87
2023-02-24T21:42:44.617Z,3.57
2023-02-24T21:45:14.027Z,3.87
2023-02-24T21:47:43.728Z,3.81
2023-02-24T21:50:16.069Z,3.66
2023-02-24T21:52:47.321Z,3.82
2023-02-24T21:55:19.301Z,3.95
2023-02-24T21:57:48.483Z,3.84
2023-02-24T22:00:21.224Z,4.38
2023-02-24T22:02:51.592Z,4.36
2023-02-24T22:05:20.818Z,3.95
2023-02-24T22:07:50.326Z,4.35
2023-02-24T22:10:23.036Z,3.82
2023-02-24T22:12:52.081Z,3.66
2023-02-24T22:15:21.318Z,3.80
2023-02-24T22:17:50.418Z,4.24
2023-02-24T22:20:19.654Z,4.48
2023-02-24T22:22:50.913Z,4.65
2023-02-24T22:25:21.561Z,4.30
2023-02-24T22:27:52.196Z,3.77
2023-02-24T22:30:21.453Z,3.90
2023-02-24T22:32:51.036Z,3.67
2023-02-24T22:35:20.255Z,3.55
2023-02-24T22:37:48.956Z,3.83
2023-02-24T22:40:20.686Z,4.38
2023-02-24T22:42:51.292Z,4.15
2023-02-24T22:45:20.374Z,4.50
2023-02-24T22:47:49.606Z,4.08
2023-02-24T22:50:18.945Z,3.91
2023-02-24T22:52:49.113Z,4.17
2023-02-24T22:55:19.779Z,4.70
2023-02-24T22:57:50.325Z,4.72
2023-02-24T23:00:23.317Z,4.46
2023-02-24T23:02:52.436Z,4.77
2023-02-24T23:05:21.655Z,5.04
2023-02-24T23:07:50.644Z,4.99
2023-02-24T23:10:19.874Z,4.82
2023-02-24T23:12:50.411Z,4.81
2023-02-24T23:15:19.494Z,4.88
2023-02-24T23:17:49.035Z,4.30
2023-02-24T23:20:18.778Z,4.75
2023-02-24T23:22:50.567Z,4.63
2023-02-24T23:25:23.193Z,5.09
2023-02-24T23:27:54.911Z,5.34
2023-02-24T23:30:24.775Z,5.06
2023-02-24T23:32:53.856Z,5.11
2023-02-24T23:35:23.120Z,5.18
2023-02-24T23:37:51.822Z,4.75
2023-02-24T23:40:26.107Z,4.56
2023-02-24T23:42:56.930Z,4.60
2023-02-24T23:45:26.169Z,4.82
2023-02-24T23:47:55.228Z,4.80
2023-02-24T23:50:24.352Z,4.40
2023-02-24T23:52:53.999Z,4.29
2023-02-24T23:55:23.204Z,4.33
2023-02-24T23:57:53.233Z,4.21
